createdAt,value
2018-02-15T00:00:53.474Z,23.40
2018-02-15T00:01:53.464Z,22.80
2018-02-15T00:02:53.453Z,18.30
2018-02-15T00:03:53.441Z,19.60
2018-02-15T00:04:53.430Z,23.40
2018-02-15T00:05:53.419Z,19.20
2018-02-15T00:06:53.412Z,21.60
2018-02-15T00:07:53.401Z,20.80
2018-02-15T00:08:53.390Z,21.80
2018-02-15T00:09:53.377Z,21.20
2018-02-15T00:10:53.367Z,20.60
2018-02-15T00:11:53.359Z,22.80
2018-02-15T00:12:53.345Z,20.90
2018-02-15T00:13:53.335Z,18.30
2018-02-15T00:14:53.320Z,19.00
2018-02-15T00:15:53.308Z,20.60
2018-02-15T00:16:53.297Z,22.40
2018-02-15T00:17:53.286Z,20.70
2018-02-15T00:18:53.279Z,19.00
2018-02-15T00:19:53.268Z,20.50
2018-02-15T00:20:53.256Z,19.40
2018-02-15T00:21:53.246Z,18.60
2018-02-15T00:22:53.231Z,18.10
2018-02-15T00:23:53.219Z,19.50
2018-02-15T00:24:53.208Z,19.40
2018-02-15T00:25:53.198Z,22.70
2018-02-15T00:26:53.187Z,18.20
2018-02-15T00:27:53.174Z,22.30
2018-02-15T00:28:53.170Z,18.50
2018-02-15T00:29:53.154Z,18.30
2018-02-15T00:30:53.147Z,18.30
2018-02-15T00:31:53.135Z,19.10
2018-02-15T00:32:53.124Z,21.20
2018-02-15T00:33:53.117Z,21.50
2018-02-15T00:34:53.103Z,17.80
2018-02-15T00:35:53.092Z,18.70
2018-02-15T00:36:53.081Z,19.00
2018-02-15T00:37:53.070Z,19.90
2018-02-15T00:38:53.055Z,17.70
2018-02-15T00:39:53.042Z,22.60
2018-02-15T00:40:53.032Z,19.20
2018-02-15T00:41:53.022Z,19.20
2018-02-15T00:42:53.011Z,20.50
2018-02-15T00:43:52.999Z,19.00
2018-02-15T00:44:52.988Z,19.20
2018-02-15T00:45:52.977Z,21.50
2018-02-15T00:46:52.971Z,17.10
2018-02-15T00:47:52.959Z,16.90
2018-02-15T00:48:52.948Z,20.20
2018-02-15T00:49:52.938Z,18.20
2018-02-15T00:50:52.927Z,21.00
2018-02-15T00:51:52.920Z,18.80
2018-02-15T00:52:52.906Z,17.30
2018-02-15T00:53:52.894Z,17.90
2018-02-15T00:54:52.879Z,19.70
2018-02-15T00:55:52.868Z,18.00
2018-02-15T00:56:52.856Z,19.40
2018-02-15T00:57:52.845Z,22.80
2018-02-15T00:58:52.834Z,19.00
2018-02-15T00:59:52.823Z,17.80
2018-02-15T01:00:52.810Z,17.80
2018-02-15T01:01:52.801Z,20.50
2018-02-15T01:02:52.795Z,18.00
2018-02-15T01:03:52.783Z,17.70
2018-02-15T01:04:52.772Z,23.30
2018-02-15T01:05:52.763Z,18.10
2018-02-15T01:06:52.750Z,16.30
2018-02-15T01:07:52.738Z,20.30
2018-02-15T01:08:52.727Z,18.50
2018-02-15T01:09:52.716Z,19.00
2018-02-15T01:10:52.702Z,16.60
2018-02-15T01:11:52.690Z,17.10
2018-02-15T01:12:52.679Z,17.90
2018-02-15T01:13:52.668Z,16.70
2018-02-15T01:14:52.660Z,16.20
2018-02-15T01:15:52.645Z,17.20
2018-02-15T01:16:52.639Z,18.10
2018-02-15T01:17:52.624Z,17.30
2018-02-15T01:18:52.617Z,18.80
2018-02-15T01:19:52.606Z,17.50
2018-02-15T01:20:52.595Z,16.70
2018-02-15T01:21:52.584Z,17.70
2018-02-15T01:22:52.569Z,16.20
2018-02-15T01:23:52.556Z,17.00
2018-02-15T01:24:52.546Z,17.30
2018-02-15T01:25:52.535Z,16.90
2018-02-15T01:26:52.529Z,19.00
2018-02-15T01:27:52.517Z,18.20
2018-02-15T01:28:52.507Z,19.40
2018-02-15T01:29:52.496Z,22.00
2018-02-15T01:30:52.485Z,19.00
2018-02-15T01:31:52.473Z,16.30
2018-02-15T01:32:52.462Z,16.70
2018-02-15T01:33:52.451Z,15.70
2018-02-15T01:34:52.436Z,16.90
2018-02-15T01:35:52.425Z,16.80
2018-02-15T01:36:52.414Z,16.70
2018-02-15T01:37:52.403Z,17.00
2018-02-15T01:38:52.408Z,15.40
2018-02-15T01:39:52.380Z,16.50
2018-02-15T01:40:52.369Z,15.80
2018-02-15T01:41:52.358Z,17.20
2018-02-15T01:42:52.352Z,17.50
2018-02-15T01:43:52.394Z,15.80
2018-02-15T01:44:52.329Z,15.70
2018-02-15T01:45:52.318Z,16.90
2018-02-15T01:46:52.307Z,17.00
2018-02-15T01:47:52.297Z,15.30
2018-02-15T01:48:52.286Z,16.60
2018-02-15T01:49:52.275Z,17.20
2018-02-15T01:50:52.259Z,17.80
2018-02-15T01:51:52.247Z,16.30
2018-02-15T01:52:52.237Z,14.90
2018-02-15T01:53:52.226Z,16.70
2018-02-15T01:54:52.215Z,15.90
2018-02-15T01:55:52.204Z,19.30
2018-02-15T01:56:52.193Z,16.00
2018-02-15T01:57:52.182Z,16.10
2018-02-15T01:58:52.176Z,17.10
2018-02-15T01:59:52.164Z,16.30
2018-02-15T02:00:52.154Z,17.60
2018-02-15T02:01:52.143Z,16.40
2018-02-15T02:02:52.132Z,16.10
2018-02-15T02:03:52.120Z,16.80
2018-02-15T02:04:52.110Z,15.10
2018-02-15T02:05:52.099Z,15.70
2018-02-15T02:06:52.086Z,16.30
2018-02-15T02:07:52.073Z,18.90
2018-02-15T02:08:52.065Z,16.00
2018-02-15T02:09:52.052Z,16.20
2018-02-15T02:10:52.042Z,16.20
2018-02-15T02:11:52.031Z,18.50
2018-02-15T02:12:52.018Z,15.90
2018-02-15T02:13:52.008Z,16.60
2018-02-15T02:14:52.003Z,15.60
2018-02-15T02:15:51.990Z,18.50
2018-02-15T02:16:51.980Z,15.90
2018-02-15T02:17:51.969Z,16.40
2018-02-15T02:18:51.959Z,17.60
2018-02-15T02:19:51.950Z,15.90
2018-02-15T02:20:51.936Z,16.60
2018-02-15T02:21:51.926Z,15.60
2018-02-15T02:22:51.911Z,16.60
2018-02-15T02:23:51.900Z,19.20
2018-02-15T02:24:51.889Z,15.00
2018-02-15T02:25:51.881Z,15.20
2018-02-15T02:26:51.872Z,15.30
2018-02-15T02:27:51.861Z,17.50
2018-02-15T02:28:51.850Z,17.30
2018-02-15T02:29:51.839Z,15.30
2018-02-15T02:30:51.824Z,16.10
2018-02-15T02:31:51.814Z,15.80
2018-02-15T02:32:51.807Z,16.00
2018-02-15T02:33:51.793Z,15.60
2018-02-15T02:34:51.783Z,16.50
2018-02-15T02:35:51.770Z,16.60
2018-02-15T02:36:51.759Z,16.50
2018-02-15T02:37:51.749Z,16.50
2018-02-15T02:38:51.748Z,19.00
2018-02-15T02:39:51.730Z,16.20
2018-02-15T02:40:51.720Z,17.20
2018-02-15T02:41:51.711Z,16.60
2018-02-15T02:42:51.700Z,16.70
2018-02-15T02:43:51.690Z,16.70
2018-02-15T02:44:51.678Z,17.60
2018-02-15T02:45:51.667Z,16.60
2018-02-15T02:46:51.654Z,17.10
2018-02-15T02:47:51.644Z,16.70
2018-02-15T02:48:51.630Z,17.30
2018-02-15T02:49:51.620Z,17.10
2018-02-15T02:50:51.609Z,16.60
2018-02-15T02:51:51.602Z,16.60
2018-02-15T02:52:51.588Z,19.70
2018-02-15T02:53:51.579Z,19.30
2018-02-15T02:54:51.569Z,19.90
2018-02-15T02:55:51.560Z,15.90
2018-02-15T02:56:51.549Z,18.50
2018-02-15T02:57:51.539Z,18.10
2018-02-15T02:58:51.530Z,15.80
2018-02-15T02:59:51.516Z,15.20
2018-02-15T03:00:51.507Z,18.60
2018-02-15T03:01:51.496Z,16.80
2018-02-15T03:02:51.481Z,16.80
2018-02-15T03:03:51.469Z,17.10
2018-02-15T03:04:51.459Z,19.90
2018-02-15T03:05:51.470Z,16.40
2018-02-15T03:06:51.440Z,17.20
2018-02-15T03:07:51.429Z,21.20
2018-02-15T03:08:51.416Z,16.70
2018-02-15T03:09:51.405Z,16.40
2018-02-15T03:10:51.399Z,16.30
2018-02-15T03:11:51.389Z,16.70
2018-02-15T03:12:51.376Z,19.30
2018-02-15T03:13:51.366Z,18.00
2018-02-15T03:14:51.356Z,18.60
2018-02-15T03:15:51.347Z,17.40
2018-02-15T03:16:51.334Z,17.80
2018-02-15T03:17:51.323Z,18.70
2018-02-15T03:18:51.308Z,17.60
2018-02-15T03:19:51.297Z,17.00
2018-02-15T03:20:51.285Z,18.70
2018-02-15T03:21:51.275Z,20.10
2018-02-15T03:22:51.265Z,17.70
2018-02-15T03:23:51.252Z,18.80
2018-02-15T03:24:51.242Z,20.30
2018-02-15T03:25:51.231Z,22.40
2018-02-15T03:26:51.224Z,17.80
2018-02-15T03:27:51.213Z,17.70
2018-02-15T03:28:51.206Z,20.00
2018-02-15T03:29:51.191Z,17.20
2018-02-15T03:30:51.177Z,18.70
2018-02-15T03:31:51.166Z,19.20
2018-02-15T03:32:51.156Z,23.00
2018-02-15T03:33:51.144Z,21.10
2018-02-15T03:34:51.135Z,18.60
2018-02-15T03:35:51.123Z,19.70
2018-02-15T03:36:51.112Z,19.80
2018-02-15T03:37:51.101Z,20.40
2018-02-15T03:38:51.090Z,19.70
2018-02-15T03:39:51.078Z,20.50
2018-02-15T03:40:51.066Z,21.40
2018-02-15T03:41:51.055Z,21.10
2018-02-15T03:42:51.039Z,21.00
2018-02-15T03:43:51.027Z,22.50
2018-02-15T03:44:51.016Z,23.50
2018-02-15T03:45:51.004Z,23.30
2018-02-15T03:46:50.993Z,23.20
2018-02-15T03:47:50.980Z,23.40
2018-02-15T03:48:50.969Z,23.70
2018-02-15T03:49:50.957Z,24.50
2018-02-15T03:50:50.949Z,26.10
2018-02-15T03:51:50.937Z,26.20
2018-02-15T03:52:50.925Z,25.40
2018-02-15T03:53:50.914Z,32.20
2018-02-15T03:54:50.902Z,28.10
2018-02-15T03:55:50.889Z,26.60
2018-02-15T03:56:50.877Z,29.50
2018-02-15T03:57:50.865Z,29.00
2018-02-15T03:58:50.849Z,32.70
2018-02-15T03:59:50.836Z,35.20
2018-02-15T04:00:50.826Z,33.10
2018-02-15T04:01:50.812Z,35.70
2018-02-15T04:02:50.800Z,31.40
2018-02-15T04:03:50.786Z,31.60
2018-02-15T04:04:50.774Z,38.50
2018-02-15T04:05:50.762Z,33.50
2018-02-15T04:06:50.754Z,36.40
2018-02-15T04:07:50.741Z,37.60
2018-02-15T04:08:50.729Z,37.20
2018-02-15T04:09:50.717Z,39.60
2018-02-15T04:10:50.704Z,40.90
2018-02-15T04:11:50.690Z,45.70
2018-02-15T04:12:50.679Z,50.90
2018-02-15T04:13:50.666Z,45.80
2018-02-15T04:14:50.651Z,52.30
2018-02-15T04:15:50.636Z,55.50
2018-02-15T04:16:50.624Z,51.90
2018-02-15T04:17:50.611Z,52.80
2018-02-15T04:18:50.602Z,56.60
2018-02-15T04:19:50.586Z,55.10
2018-02-15T04:20:50.573Z,55.90
2018-02-15T04:21:50.560Z,55.60
2018-02-15T04:22:50.552Z,57.30
2018-02-15T04:23:50.542Z,54.50
2018-02-15T04:24:50.526Z,67.60
2018-02-15T04:25:50.514Z,69.90
2018-02-15T04:26:50.501Z,60.00
2018-02-15T04:27:50.487Z,68.70
2018-02-15T04:28:50.474Z,65.90
2018-02-15T04:29:50.462Z,67.50
2018-02-15T04:30:50.444Z,66.40
2018-02-15T04:31:50.431Z,66.40
2018-02-15T04:32:50.423Z,72.70
2018-02-15T04:33:50.406Z,73.40
2018-02-15T04:34:50.393Z,76.80
2018-02-15T04:35:50.380Z,76.80
2018-02-15T04:36:50.367Z,73.60
2018-02-15T04:37:50.355Z,70.40
2018-02-15T04:38:50.346Z,78.50
2018-02-15T04:39:50.332Z,81.20
2018-02-15T04:40:50.320Z,86.50
2018-02-15T04:41:50.307Z,74.60
2018-02-15T04:42:50.294Z,83.40
2018-02-15T04:43:50.282Z,86.20
2018-02-15T04:44:50.268Z,85.40
2018-02-15T04:45:50.255Z,89.80
2018-02-15T04:46:50.238Z,87.80
2018-02-15T04:47:50.224Z,94.40
2018-02-15T04:48:50.212Z,88.80
2018-02-15T04:49:50.199Z,88.90
2018-02-15T04:50:50.186Z,88.50
2018-02-15T04:51:50.173Z,95.40
2018-02-15T04:52:50.159Z,92.80
2018-02-15T04:53:50.147Z,86.80
2018-02-15T04:54:50.141Z,95.90
2018-02-15T04:55:50.124Z,86.20
2018-02-15T04:56:50.114Z,96.40
2018-02-15T04:57:50.098Z,90.70
2018-02-15T04:58:50.086Z,96.10
2018-02-15T04:59:50.072Z,90.10
2018-02-15T05:00:50.059Z,94.70
2018-02-15T05:01:50.046Z,92.40
2018-02-15T05:02:50.029Z,85.60
2018-02-15T05:03:50.015Z,99.30
2018-02-15T05:04:50.003Z,99.50
2018-02-15T05:05:49.989Z,96.60
2018-02-15T05:06:49.976Z,100.50
2018-02-15T05:07:49.963Z,103.20
2018-02-15T05:08:49.949Z,96.40
2018-02-15T05:09:49.936Z,105.70
2018-02-15T05:10:49.928Z,101.90
2018-02-15T05:11:49.914Z,92.90
2018-02-15T05:12:49.901Z,96.20
2018-02-15T05:13:49.888Z,89.40
2018-02-15T05:14:49.875Z,101.60
2018-02-15T05:15:49.861Z,94.60
2018-02-15T05:16:49.849Z,92.00
2018-02-15T05:17:49.835Z,92.90
2018-02-15T05:18:49.818Z,92.90
2018-02-15T05:19:49.804Z,92.80
2018-02-15T05:20:49.792Z,91.10
2018-02-15T05:21:49.777Z,90.70
2018-02-15T05:22:49.765Z,94.60
2018-02-15T05:23:49.752Z,92.10
2018-02-15T05:24:49.738Z,94.00
2018-02-15T05:25:49.724Z,98.70
2018-02-15T05:26:49.716Z,90.90
2018-02-15T05:27:49.703Z,88.60
2018-02-15T05:28:49.690Z,90.40
2018-02-15T05:29:49.677Z,91.40
2018-02-15T05:30:49.664Z,87.60
2018-02-15T05:31:49.650Z,89.90
2018-02-15T05:32:49.636Z,91.30
2018-02-15T05:33:49.624Z,90.80
2018-02-15T05:34:49.607Z,89.50
2018-02-15T05:35:49.593Z,92.10
2018-02-15T05:36:49.580Z,89.00
2018-02-15T05:37:49.567Z,93.10
2018-02-15T05:38:49.558Z,89.80
2018-02-15T05:39:49.544Z,98.70
2018-02-15T05:40:49.531Z,97.80
2018-02-15T05:41:49.519Z,94.20
2018-02-15T05:42:49.502Z,99.90
2018-02-15T05:43:49.487Z,93.10
2018-02-15T05:44:49.475Z,95.10
2018-02-15T05:45:49.463Z,101.00
2018-02-15T05:46:49.449Z,99.00
2018-02-15T05:47:49.434Z,102.90
2018-02-15T05:48:49.422Z,98.90
2018-02-15T05:49:49.408Z,99.50
2018-02-15T05:50:49.399Z,97.40
2018-02-15T05:51:49.386Z,99.10
2018-02-15T05:52:49.373Z,104.10
2018-02-15T05:53:49.360Z,93.00
2018-02-15T05:54:49.346Z,100.80
2018-02-15T05:55:49.334Z,89.60
2018-02-15T05:56:49.319Z,87.30
2018-02-15T05:57:49.306Z,97.10
2018-02-15T05:58:49.288Z,94.20
2018-02-15T05:59:49.275Z,94.90
2018-02-15T06:00:49.262Z,102.60
2018-02-15T06:01:49.249Z,87.00
2018-02-15T06:02:49.236Z,86.60
2018-02-15T06:03:49.221Z,87.50
2018-02-15T06:04:49.208Z,86.90
2018-02-15T06:05:49.196Z,84.40
2018-02-15T06:06:49.196Z,85.80
2018-02-15T06:07:49.181Z,89.60
2018-02-15T06:08:49.170Z,85.60
2018-02-15T06:09:49.156Z,81.50
2018-02-15T06:10:49.144Z,69.70
2018-02-15T06:11:49.129Z,76.00
2018-02-15T06:12:49.117Z,72.60
2018-02-15T06:13:49.103Z,71.50
2018-02-15T06:14:49.087Z,71.30
2018-02-15T06:15:49.073Z,66.70
2018-02-15T06:16:49.064Z,65.50
2018-02-15T06:17:49.047Z,67.40
2018-02-15T06:18:49.034Z,70.30
2018-02-15T06:19:49.020Z,72.60
2018-02-15T06:20:49.007Z,69.00
2018-02-15T06:21:48.996Z,64.80
2018-02-15T06:22:48.985Z,66.00
2018-02-15T06:23:48.971Z,69.60
2018-02-15T06:24:48.958Z,65.40
2018-02-15T06:25:48.946Z,73.10
2018-02-15T06:26:48.932Z,73.20
2018-02-15T06:27:48.918Z,68.80
2018-02-15T06:28:48.905Z,60.20
2018-02-15T06:29:48.892Z,67.50
2018-02-15T06:30:48.875Z,62.80
2018-02-15T06:31:48.862Z,64.80
2018-02-15T06:32:48.848Z,62.10
2018-02-15T06:33:48.835Z,63.70
2018-02-15T06:34:48.823Z,61.20
2018-02-15T06:35:48.808Z,70.90
2018-02-15T06:36:48.796Z,61.20
2018-02-15T06:37:48.784Z,60.40
2018-02-15T06:38:48.774Z,60.50
2018-02-15T06:39:48.761Z,61.20
2018-02-15T06:40:48.750Z,58.80
2018-02-15T06:41:48.735Z,53.70
2018-02-15T06:42:48.717Z,59.60
2018-02-15T06:43:48.704Z,61.40
2018-02-15T06:44:48.691Z,58.20
2018-02-15T06:45:48.677Z,57.90
2018-02-15T06:46:48.671Z,62.30
2018-02-15T06:47:48.655Z,59.30
2018-02-15T06:48:48.643Z,62.00
2018-02-15T06:49:48.629Z,55.50
2018-02-15T06:50:48.618Z,61.90
2018-02-15T06:51:48.605Z,57.40
2018-02-15T06:52:48.591Z,56.30
2018-02-15T06:53:48.577Z,53.40
2018-02-15T06:54:48.561Z,50.40
2018-02-15T06:55:48.547Z,50.30
2018-02-15T06:56:48.536Z,52.20
2018-02-15T06:57:48.525Z,47.50
2018-02-15T06:58:48.510Z,50.00
2018-02-15T06:59:48.494Z,46.10
2018-02-15T07:00:48.483Z,45.20
2018-02-15T07:01:48.470Z,45.00
2018-02-15T07:02:48.461Z,50.20
2018-02-15T07:03:48.449Z,49.20
2018-02-15T07:04:48.433Z,43.10
2018-02-15T07:05:48.422Z,46.80
2018-02-15T07:06:48.408Z,45.70
2018-02-15T07:07:48.395Z,44.90
2018-02-15T07:08:48.382Z,48.90
2018-02-15T07:09:48.369Z,46.60
2018-02-15T07:10:48.352Z,42.30
2018-02-15T07:11:48.337Z,42.20
2018-02-15T07:12:48.324Z,39.80
2018-02-15T07:13:48.313Z,42.60
2018-02-15T07:14:48.297Z,45.70
2018-02-15T07:15:48.285Z,40.50
2018-02-15T07:16:48.271Z,45.10
2018-02-15T07:17:48.261Z,42.40
2018-02-15T07:18:48.248Z,43.90
2018-02-15T07:19:48.235Z,40.70
2018-02-15T07:20:48.225Z,38.40
2018-02-15T07:21:48.208Z,41.50
2018-02-15T07:22:48.195Z,37.00
2018-02-15T07:23:48.180Z,39.30
2018-02-15T07:24:48.167Z,37.80
2018-02-15T07:25:48.154Z,35.70
2018-02-15T07:26:48.136Z,36.00
2018-02-15T07:27:48.121Z,38.80
2018-02-15T07:28:48.109Z,44.00
2018-02-15T07:29:48.096Z,43.60
2018-02-15T07:30:48.083Z,43.70
2018-02-15T07:31:48.070Z,43.10
2018-02-15T07:32:48.055Z,37.80
2018-02-15T07:33:48.042Z,39.60
2018-02-15T07:34:48.033Z,34.80
2018-02-15T07:35:48.019Z,38.90
2018-02-15T07:36:48.005Z,38.10
2018-02-15T07:37:47.993Z,40.60
2018-02-15T07:38:47.979Z,40.10
2018-02-15T07:39:47.964Z,35.30
2018-02-15T07:40:47.952Z,37.00
2018-02-15T07:41:47.937Z,33.60
2018-02-15T07:42:47.920Z,36.10
2018-02-15T07:43:47.905Z,35.80
2018-02-15T07:44:47.894Z,33.00
2018-02-15T07:45:47.881Z,32.70
2018-02-15T07:46:47.870Z,34.20
2018-02-15T07:47:47.857Z,31.30
2018-02-15T07:48:47.845Z,30.10
2018-02-15T07:49:47.831Z,33.60
2018-02-15T07:50:47.815Z,33.50
2018-02-15T07:51:47.799Z,32.80
2018-02-15T07:52:47.787Z,31.10
2018-02-15T07:53:47.775Z,32.00
2018-02-15T07:54:47.761Z,33.30
2018-02-15T07:55:47.746Z,29.20
2018-02-15T07:56:47.733Z,31.50
2018-02-15T07:57:47.722Z,33.70
2018-02-15T07:58:47.713Z,31.70
2018-02-15T07:59:47.699Z,31.30
2018-02-15T08:00:47.687Z,35.10
2018-02-15T08:01:47.673Z,33.10
2018-02-15T08:02:47.703Z,33.90
2018-02-15T08:03:47.647Z,34.50
2018-02-15T08:04:47.639Z,32.50
2018-02-15T08:05:47.622Z,28.70
2018-02-15T08:06:47.605Z,32.80
2018-02-15T08:07:47.592Z,33.30
2018-02-15T08:08:47.578Z,33.90
2018-02-15T08:09:47.565Z,37.50
2018-02-15T08:10:47.553Z,42.00
2018-02-15T08:11:47.540Z,37.70
2018-02-15T08:12:47.530Z,35.40
2018-02-15T08:13:47.516Z,38.60
2018-02-15T08:14:47.506Z,38.70
2018-02-15T08:15:47.492Z,31.10
2018-02-15T08:16:47.479Z,33.80
2018-02-15T08:17:47.467Z,32.10
2018-02-15T08:18:47.456Z,30.00
2018-02-15T08:19:47.446Z,33.00
2018-02-15T08:20:47.433Z,32.30
2018-02-15T08:21:47.419Z,28.80
2018-02-15T08:22:47.400Z,30.30
2018-02-15T08:23:47.388Z,30.00
2018-02-15T08:24:47.374Z,28.10
2018-02-15T08:25:47.362Z,31.70
2018-02-15T08:26:47.351Z,30.50
2018-02-15T08:27:47.338Z,29.50
2018-02-15T08:28:47.325Z,33.50
2018-02-15T08:29:47.313Z,32.50
2018-02-15T08:30:47.304Z,30.50
2018-02-15T08:31:47.291Z,27.80
2018-02-15T08:32:47.278Z,30.90
2018-02-15T08:33:47.269Z,31.30
2018-02-15T08:34:47.253Z,31.90
2018-02-15T08:35:47.244Z,32.80
2018-02-15T08:36:47.228Z,30.70
2018-02-15T08:37:47.216Z,29.00
2018-02-15T08:38:47.201Z,30.10
2018-02-15T08:39:47.187Z,31.40
2018-02-15T08:40:47.177Z,29.00
2018-02-15T08:41:47.163Z,29.90
2018-02-15T08:42:47.150Z,34.20
2018-02-15T08:43:47.136Z,31.00
2018-02-15T08:44:47.125Z,33.30
2018-02-15T08:45:47.114Z,33.00
2018-02-15T08:46:47.106Z,36.40
2018-02-15T08:47:47.094Z,37.30
2018-02-15T08:48:47.081Z,33.10
2018-02-15T08:49:47.068Z,35.00
2018-02-15T08:50:47.051Z,39.60
2018-02-15T08:51:47.040Z,40.70
2018-02-15T08:52:47.028Z,37.60
2018-02-15T08:53:47.015Z,35.10
2018-02-15T08:54:47.009Z,33.10
2018-02-15T08:55:46.994Z,37.90
2018-02-15T08:56:46.982Z,34.40
2018-02-15T08:57:46.970Z,36.80
2018-02-15T08:58:46.958Z,37.90
2018-02-15T08:59:46.944Z,40.20
2018-02-15T09:00:46.935Z,38.50
2018-02-15T09:01:46.920Z,42.10
2018-02-15T09:02:46.905Z,36.70
2018-02-15T09:03:46.890Z,36.50
2018-02-15T09:04:46.879Z,34.10
2018-02-15T09:05:46.867Z,38.80
2018-02-15T09:06:46.855Z,38.10
2018-02-15T09:07:46.842Z,34.80
2018-02-15T09:08:46.830Z,35.00
2018-02-15T09:09:46.819Z,35.80
2018-02-15T09:10:46.810Z,31.50
2018-02-15T09:11:46.797Z,35.20
2018-02-15T09:12:46.785Z,34.20
2018-02-15T09:13:46.776Z,33.10
2018-02-15T09:14:46.761Z,33.50
2018-02-15T09:15:46.748Z,36.60
2018-02-15T09:16:46.738Z,41.10
2018-02-15T09:17:46.724Z,36.60
2018-02-15T09:18:46.708Z,35.40
2018-02-15T09:19:46.694Z,33.40
2018-02-15T09:20:46.683Z,32.80
2018-02-15T09:21:46.670Z,33.80
2018-02-15T09:22:46.659Z,33.50
2018-02-15T09:23:46.646Z,32.60
2018-02-15T09:24:46.635Z,33.30
2018-02-15T09:25:46.622Z,33.40
2018-02-15T09:26:46.615Z,30.70
2018-02-15T09:27:46.602Z,32.00
2018-02-15T09:28:46.589Z,35.60
2018-02-15T09:29:46.578Z,38.30
2018-02-15T09:30:46.565Z,37.50
2018-02-15T09:31:46.554Z,36.20
2018-02-15T09:32:46.541Z,39.70
2018-02-15T09:33:46.529Z,38.70
2018-02-15T09:34:46.513Z,40.70
2018-02-15T09:35:46.501Z,39.50
2018-02-15T09:36:46.495Z,47.80
2018-02-15T09:37:46.476Z,44.50
2018-02-15T09:38:46.466Z,42.70
2018-02-15T09:39:46.451Z,39.10
2018-02-15T09:40:46.440Z,43.50
2018-02-15T09:41:46.428Z,42.10
2018-02-15T09:42:46.421Z,40.10
2018-02-15T09:43:46.408Z,41.50
2018-02-15T09:44:46.397Z,41.40
2018-02-15T09:45:46.422Z,40.40
2018-02-15T09:46:46.373Z,41.90
2018-02-15T09:47:46.360Z,44.00
2018-02-15T09:48:46.349Z,42.80
2018-02-15T09:49:46.336Z,40.60
2018-02-15T09:50:46.321Z,47.20
2018-02-15T09:51:46.307Z,42.90
2018-02-15T09:52:46.297Z,44.40
2018-02-15T09:53:46.287Z,44.10
2018-02-15T09:54:46.277Z,46.00
2018-02-15T09:55:46.287Z,49.70
2018-02-15T09:56:46.252Z,41.40
2018-02-15T09:57:46.241Z,49.00
2018-02-15T09:58:46.225Z,47.50
2018-02-15T09:59:46.212Z,50.00
2018-02-15T10:00:46.203Z,47.90
2018-02-15T10:01:46.188Z,45.70
2018-02-15T10:02:46.194Z,43.90
2018-02-15T10:03:46.163Z,50.00
2018-02-15T10:04:46.152Z,50.00
2018-02-15T10:05:46.138Z,46.10
2018-02-15T10:06:46.134Z,43.50
2018-02-15T10:07:46.119Z,46.90
2018-02-15T10:08:46.109Z,45.60
2018-02-15T10:09:46.095Z,45.00
2018-02-15T10:10:46.084Z,41.20
2018-02-15T10:11:46.072Z,41.40
2018-02-15T10:12:46.060Z,47.40
2018-02-15T10:13:46.050Z,49.50
2018-02-15T10:14:46.031Z,51.40
2018-02-15T10:15:46.020Z,45.50
2018-02-15T10:16:46.007Z,43.80
2018-02-15T10:17:45.996Z,48.30
2018-02-15T10:18:45.984Z,52.10
2018-02-15T10:19:45.971Z,46.90
2018-02-15T10:20:45.958Z,52.10
2018-02-15T10:21:45.948Z,48.60
2018-02-15T10:22:45.943Z,47.10
2018-02-15T10:23:45.928Z,50.20
2018-02-15T10:24:45.920Z,50.60
2018-02-15T10:25:45.909Z,49.90
2018-02-15T10:26:45.892Z,52.70
2018-02-15T10:27:45.880Z,53.40
2018-02-15T10:28:45.868Z,55.00
2018-02-15T10:29:45.856Z,50.40
2018-02-15T10:30:45.841Z,55.50
2018-02-15T10:31:45.829Z,53.80
2018-02-15T10:32:45.817Z,55.30
2018-02-15T10:33:45.804Z,55.80
2018-02-15T10:34:45.792Z,57.50
2018-02-15T10:35:45.782Z,55.70
2018-02-15T10:36:45.819Z,49.80
2018-02-15T10:37:45.756Z,49.30
2018-02-15T10:38:45.750Z,54.90
2018-02-15T10:39:45.738Z,52.30
2018-02-15T10:40:45.725Z,53.00
2018-02-15T10:41:45.712Z,55.70
2018-02-15T10:42:45.702Z,52.20
2018-02-15T10:43:45.689Z,55.80
2018-02-15T10:44:45.676Z,59.60
2018-02-15T10:45:45.664Z,58.60
2018-02-15T10:46:45.649Z,58.50
2018-02-15T10:47:45.637Z,56.50
2018-02-15T10:48:45.624Z,54.40
2018-02-15T10:49:45.619Z,57.80
2018-02-15T10:50:45.601Z,57.50
2018-02-15T10:51:45.588Z,57.40
2018-02-15T10:52:45.576Z,62.80
2018-02-15T10:53:45.563Z,59.10
2018-02-15T10:54:45.557Z,60.90
2018-02-15T10:55:45.545Z,58.20
2018-02-15T10:56:45.533Z,55.20
2018-02-15T10:57:45.520Z,54.80
2018-02-15T10:58:45.505Z,52.30
2018-02-15T10:59:45.491Z,56.70
2018-02-15T11:00:45.480Z,55.50
2018-02-15T11:01:45.468Z,50.60
2018-02-15T11:02:45.460Z,55.40
2018-02-15T11:03:45.448Z,50.50
2018-02-15T11:04:45.436Z,54.20
2018-02-15T11:05:45.424Z,56.70
2018-02-15T11:06:45.465Z,55.20
2018-02-15T11:07:45.400Z,57.00
2018-02-15T11:08:45.388Z,54.50
2018-02-15T11:09:45.376Z,54.30
2018-02-15T11:10:45.361Z,54.90
2018-02-15T11:11:45.349Z,57.20
2018-02-15T11:12:45.337Z,63.90
2018-02-15T11:13:45.325Z,61.30
2018-02-15T11:14:45.314Z,60.30
2018-02-15T11:15:45.327Z,54.80
2018-02-15T11:16:45.290Z,55.60
2018-02-15T11:17:45.280Z,51.00
2018-02-15T11:18:45.270Z,52.70
2018-02-15T11:19:45.262Z,57.60
2018-02-15T11:20:45.247Z,63.80
2018-02-15T11:21:45.235Z,53.60
2018-02-15T11:22:45.224Z,56.90
2018-02-15T11:23:45.210Z,52.70
2018-02-15T11:24:45.199Z,56.50
2018-02-15T11:25:45.188Z,50.90
2018-02-15T11:26:45.172Z,55.80
2018-02-15T11:27:45.160Z,55.60
2018-02-15T11:28:45.148Z,55.60
2018-02-15T11:29:45.136Z,56.10
2018-02-15T11:30:45.125Z,54.00
2018-02-15T11:31:45.112Z,55.90
2018-02-15T11:32:45.116Z,55.10
2018-02-15T11:33:45.090Z,55.50
2018-02-15T11:34:45.082Z,52.90
2018-02-15T11:35:45.069Z,54.80
2018-02-15T11:36:45.058Z,56.40
2018-02-15T11:37:45.046Z,53.10
2018-02-15T11:38:45.035Z,57.50
2018-02-15T11:39:45.038Z,55.00
2018-02-15T11:40:45.012Z,53.80
2018-02-15T11:41:45.003Z,52.50
2018-02-15T11:42:44.983Z,46.40
2018-02-15T11:43:44.971Z,54.80
2018-02-15T11:44:44.960Z,50.80
2018-02-15T11:45:44.976Z,55.50
2018-02-15T11:46:44.937Z,50.80
2018-02-15T11:47:44.925Z,48.60
2018-02-15T11:48:44.914Z,51.00
2018-02-15T11:49:44.904Z,55.90
2018-02-15T11:50:45.054Z,57.00
2018-02-15T11:51:44.884Z,53.30
2018-02-15T11:52:44.871Z,45.70
2018-02-15T11:53:44.881Z,51.20
2018-02-15T11:54:44.850Z,56.20
2018-02-15T11:55:44.837Z,49.50
2018-02-15T11:56:44.827Z,50.20
2018-02-15T11:57:44.815Z,56.00
2018-02-15T11:58:44.799Z,56.50
2018-02-15T11:59:44.788Z,54.60
2018-02-15T12:00:44.777Z,57.00
2018-02-15T12:01:44.765Z,48.90
2018-02-15T12:02:44.762Z,48.90
2018-02-15T12:03:44.746Z,47.80
2018-02-15T12:04:44.736Z,51.90
2018-02-15T12:05:44.723Z,52.40
2018-02-15T12:06:44.709Z,47.90
2018-02-15T12:07:44.698Z,48.00
2018-02-15T12:08:44.687Z,43.00
2018-02-15T12:09:44.675Z,46.90
2018-02-15T12:10:44.664Z,48.10
2018-02-15T12:11:44.651Z,50.30
2018-02-15T12:12:44.641Z,47.20
2018-02-15T12:13:44.630Z,45.80
2018-02-15T12:14:44.623Z,47.90
2018-02-15T12:15:44.610Z,48.90
2018-02-15T12:16:44.600Z,49.70
2018-02-15T12:17:44.591Z,48.50
2018-02-15T12:18:44.577Z,50.80
2018-02-15T12:19:44.565Z,51.50
2018-02-15T12:20:44.553Z,47.40
2018-02-15T12:21:44.543Z,50.90
2018-02-15T12:22:44.527Z,50.10
2018-02-15T12:23:44.515Z,50.90
2018-02-15T12:24:44.502Z,51.90
2018-02-15T12:25:44.494Z,50.80
2018-02-15T12:26:44.482Z,47.80
2018-02-15T12:27:44.468Z,45.70
2018-02-15T12:28:44.457Z,44.40
2018-02-15T12:29:44.449Z,45.40
2018-02-15T12:30:44.439Z,47.40
2018-02-15T12:31:44.427Z,45.00
2018-02-15T12:32:44.416Z,42.10
2018-02-15T12:33:44.405Z,46.50
2018-02-15T12:34:44.394Z,45.40
2018-02-15T12:35:44.381Z,44.90
2018-02-15T12:36:44.375Z,43.30
2018-02-15T12:37:44.364Z,43.60
2018-02-15T12:38:44.345Z,39.80
2018-02-15T12:39:44.332Z,39.30
2018-02-15T12:40:44.321Z,38.30
2018-02-15T12:41:44.310Z,39.00
2018-02-15T12:42:44.299Z,39.40
2018-02-15T12:43:44.327Z,37.10
2018-02-15T12:44:44.276Z,43.00
2018-02-15T12:45:44.264Z,44.60
2018-02-15T12:46:44.257Z,40.40
2018-02-15T12:47:44.246Z,36.80
2018-02-15T12:48:44.234Z,38.60
2018-02-15T12:49:44.223Z,39.90
2018-02-15T12:50:44.212Z,37.90
2018-02-15T12:51:44.201Z,37.00
2018-02-15T12:52:44.192Z,43.10